sensor_id;sensor_type;location;lat;lon;timestamp;P1;durP1;ratioP1;P2;durP2;ratioP2
71566;SDS011;59403;47.456;19.120;2023-07-13T00:00:26;12.15;;;6.43;;
71566;SDS011;59403;47.456;19.120;2023-07-13T00:02:53;13.82;;;5.70;;
71566;SDS011;59403;47.456;19.120;2023-07-13T00:05:20;8.68;;;5.57;;
71566;SDS011;59403;47.456;19.120;2023-07-13T00:07:48;10.35;;;5.18;;
71566;SDS011;59403;47.456;19.120;2023-07-13T00:10:16;7.77;;;4.23;;
71566;SDS011;59403;47.456;19.120;2023-07-13T00:12:44;13.77;;;4.00;;
71566;SDS011;59403;47.456;19.120;2023-07-13T00:15:14;7.82;;;4.80;;
71566;SDS011;59403;47.456;19.120;2023-07-13T00:17:46;8.13;;;3.97;;
71566;SDS011;59403;47.456;19.120;2023-07-13T00:20:13;10.75;;;4.57;;
71566;SDS011;59403;47.456;19.120;2023-07-13T00:22:40;6.83;;;4.03;;
71566;SDS011;59403;47.456;19.120;2023-07-13T00:25:07;8.57;;;4.07;;
71566;SDS011;59403;47.456;19.120;2023-07-13T00:27:36;8.57;;;4.03;;
71566;SDS011;59403;47.456;19.120;2023-07-13T00:30:04;10.35;;;3.55;;
71566;SDS011;59403;47.456;19.120;2023-07-13T00:32:35;5.55;;;3.55;;
71566;SDS011;59403;47.456;19.120;2023-07-13T00:35:02;6.17;;;3.27;;
71566;SDS011;59403;47.456;19.120;2023-07-13T00:37:29;5.00;;;3.10;;
71566;SDS011;59403;47.456;19.120;2023-07-13T00:39:56;5.35;;;3.33;;
71566;SDS011;59403;47.456;19.120;2023-07-13T00:42:23;5.45;;;2.87;;
71566;SDS011;59403;47.456;19.120;2023-07-13T00:45:00;8.13;;;3.70;;
71566;SDS011;59403;47.456;19.120;2023-07-13T00:47:29;3.80;;;2.57;;
71566;SDS011;59403;47.456;19.120;2023-07-13T00:49:57;8.38;;;3.75;;
71566;SDS011;59403;47.456;19.120;2023-07-13T00:52:24;6.65;;;3.72;;
71566;SDS011;59403;47.456;19.120;2023-07-13T00:54:53;8.30;;;3.70;;
71566;SDS011;59403;47.456;19.120;2023-07-13T00:57:20;4.55;;;3.08;;
71566;SDS011;59403;47.456;19.120;2023-07-13T00:59:48;5.73;;;3.10;;
71566;SDS011;59403;47.456;19.120;2023-07-13T01:04:55;4.25;;;3.55;;
71566;SDS011;59403;47.456;19.120;2023-07-13T01:07:58;5.50;;;3.37;;
71566;SDS011;59403;47.456;19.120;2023-07-13T01:11:02;4.93;;;3.45;;
71566;SDS011;59403;47.456;19.120;2023-07-13T01:13:51;7.00;;;3.37;;
71566;SDS011;59403;47.456;19.120;2023-07-13T01:16:22;6.43;;;3.28;;
71566;SDS011;59403;47.456;19.120;2023-07-13T01:18:57;5.82;;;3.42;;
71566;SDS011;59403;47.456;19.120;2023-07-13T01:21:32;6.15;;;3.20;;
71566;SDS011;59403;47.456;19.120;2023-07-13T01:24:07;5.28;;;3.05;;
71566;SDS011;59403;47.456;19.120;2023-07-13T01:26:35;7.87;;;3.87;;
71566;SDS011;59403;47.456;19.120;2023-07-13T01:29:05;6.05;;;3.50;;
71566;SDS011;59403;47.456;19.120;2023-07-13T01:31:34;6.57;;;3.33;;
71566;SDS011;59403;47.456;19.120;2023-07-13T01:34:10;7.68;;;3.55;;
71566;SDS011;59403;47.456;19.120;2023-07-13T01:36:39;7.82;;;3.42;;
71566;SDS011;59403;47.456;19.120;2023-07-13T01:39:11;6.17;;;3.47;;
71566;SDS011;59403;47.456;19.120;2023-07-13T01:41:42;7.40;;;3.20;;
71566;SDS011;59403;47.456;19.120;2023-07-13T01:44:16;5.18;;;2.95;;
71566;SDS011;59403;47.456;19.120;2023-07-13T01:46:45;6.32;;;3.55;;
71566;SDS011;59403;47.456;19.120;2023-07-13T01:49:19;6.35;;;3.72;;
71566;SDS011;59403;47.456;19.120;2023-07-13T01:51:54;5.60;;;3.57;;
71566;SDS011;59403;47.456;19.120;2023-07-13T01:57:41;5.82;;;3.70;;
71566;SDS011;59403;47.456;19.120;2023-07-13T02:00:35;7.53;;;3.33;;
71566;SDS011;59403;47.456;19.120;2023-07-13T02:03:14;5.82;;;3.85;;
71566;SDS011;59403;47.456;19.120;2023-07-13T02:05:50;6.97;;;3.50;;
71566;SDS011;59403;47.456;19.120;2023-07-13T02:08:22;22.67;;;4.68;;
71566;SDS011;59403;47.456;19.120;2023-07-13T02:10:57;8.82;;;3.78;;
71566;SDS011;59403;47.456;19.120;2023-07-13T02:13:37;8.80;;;3.45;;
71566;SDS011;59403;47.456;19.120;2023-07-13T02:16:12;7.60;;;3.83;;
71566;SDS011;59403;47.456;19.120;2023-07-13T02:18:53;6.47;;;3.60;;
71566;SDS011;59403;47.456;19.120;2023-07-13T02:21:23;6.55;;;3.62;;
71566;SDS011;59403;47.456;19.120;2023-07-13T02:23:55;5.15;;;4.10;;
71566;SDS011;59403;47.456;19.120;2023-07-13T02:26:31;4.22;;;3.30;;
71566;SDS011;59403;47.456;19.120;2023-07-13T02:29:10;7.43;;;4.03;;
71566;SDS011;59403;47.456;19.120;2023-07-13T02:31:51;5.20;;;3.43;;
71566;SDS011;59403;47.456;19.120;2023-07-13T02:34:40;6.22;;;3.78;;
71566;SDS011;59403;47.456;19.120;2023-07-13T02:37:15;7.47;;;3.85;;
71566;SDS011;59403;47.456;19.120;2023-07-13T02:39:58;6.15;;;4.07;;
71566;SDS011;59403;47.456;19.120;2023-07-13T02:42:47;10.48;;;4.00;;
71566;SDS011;59403;47.456;19.120;2023-07-13T02:45:33;5.73;;;4.00;;
71566;SDS011;59403;47.456;19.120;2023-07-13T02:48:17;7.15;;;4.22;;
71566;SDS011;59403;47.456;19.120;2023-07-13T02:50:58;5.15;;;3.60;;
71566;SDS011;59403;47.456;19.120;2023-07-13T02:53:41;5.37;;;4.18;;
71566;SDS011;59403;47.456;19.120;2023-07-13T02:56:26;10.15;;;4.15;;
71566;SDS011;59403;47.456;19.120;2023-07-13T02:59:01;13.20;;;4.57;;
71566;SDS011;59403;47.456;19.120;2023-07-13T03:01:30;6.65;;;4.32;;
71566;SDS011;59403;47.456;19.120;2023-07-13T03:04:23;11.50;;;4.37;;
71566;SDS011;59403;47.456;19.120;2023-07-13T03:06:53;5.62;;;3.50;;
71566;SDS011;59403;47.456;19.120;2023-07-13T03:09:30;7.47;;;3.95;;
71566;SDS011;59403;47.456;19.120;2023-07-13T03:12:04;6.17;;;3.47;;
71566;SDS011;59403;47.456;19.120;2023-07-13T03:14:48;13.93;;;4.00;;
71566;SDS011;59403;47.456;19.120;2023-07-13T03:17:20;4.97;;;3.28;;
71566;SDS011;59403;47.456;19.120;2023-07-13T03:19:49;7.30;;;3.28;;
71566;SDS011;59403;47.456;19.120;2023-07-13T03:22:26;6.40;;;3.28;;
71566;SDS011;59403;47.456;19.120;2023-07-13T03:24:57;8.00;;;3.37;;
71566;SDS011;59403;47.456;19.120;2023-07-13T03:27:27;5.78;;;3.40;;
71566;SDS011;59403;47.456;19.120;2023-07-13T03:29:54;15.70;;;3.92;;
71566;SDS011;59403;47.456;19.120;2023-07-13T03:32:21;9.05;;;3.67;;
71566;SDS011;59403;47.456;19.120;2023-07-13T03:34:49;9.38;;;3.50;;
71566;SDS011;59403;47.456;19.120;2023-07-13T03:37:16;10.67;;;3.67;;
71566;SDS011;59403;47.456;19.120;2023-07-13T03:39:46;9.88;;;4.00;;
71566;SDS011;59403;47.456;19.120;2023-07-13T03:42:14;9.65;;;3.87;;
71566;SDS011;59403;47.456;19.120;2023-07-13T03:44:42;6.37;;;4.25;;
71566;SDS011;59403;47.456;19.120;2023-07-13T03:47:14;5.97;;;4.07;;
71566;SDS011;59403;47.456;19.120;2023-07-13T03:49:41;8.60;;;4.73;;
71566;SDS011;59403;47.456;19.120;2023-07-13T03:52:08;14.20;;;4.22;;
71566;SDS011;59403;47.456;19.120;2023-07-13T03:54:35;7.30;;;4.30;;
71566;SDS011;59403;47.456;19.120;2023-07-13T03:57:02;8.48;;;4.57;;
71566;SDS011;59403;47.456;19.120;2023-07-13T03:59:31;7.62;;;4.07;;
71566;SDS011;59403;47.456;19.120;2023-07-13T04:02:00;6.53;;;4.60;;
71566;SDS011;59403;47.456;19.120;2023-07-13T04:04:32;9.40;;;4.82;;
71566;SDS011;59403;47.456;19.120;2023-07-13T04:06:59;11.65;;;4.50;;
71566;SDS011;59403;47.456;19.120;2023-07-13T04:09:26;9.15;;;4.55;;
71566;SDS011;59403;47.456;19.120;2023-07-13T04:11:54;8.45;;;4.90;;
71566;SDS011;59403;47.456;19.120;2023-07-13T04:14:23;7.97;;;4.40;;
71566;SDS011;59403;47.456;19.120;2023-07-13T04:16:52;7.43;;;4.20;;
71566;SDS011;59403;47.456;19.120;2023-07-13T04:19:24;7.43;;;4.20;;
71566;SDS011;59403;47.456;19.120;2023-07-13T04:21:51;8.35;;;4.57;;
71566;SDS011;59403;47.456;19.120;2023-07-13T04:24:18;8.75;;;4.50;;
71566;SDS011;59403;47.456;19.120;2023-07-13T04:26:44;8.73;;;4.63;;
71566;SDS011;59403;47.456;19.120;2023-07-13T04:29:11;8.60;;;4.55;;
71566;SDS011;59403;47.456;19.120;2023-07-13T04:31:38;7.30;;;4.10;;
71566;SDS011;59403;47.456;19.120;2023-07-13T04:34:09;7.10;;;4.00;;
71566;SDS011;59403;47.456;19.120;2023-07-13T04:36:40;9.50;;;3.58;;
71566;SDS011;59403;47.456;19.120;2023-07-13T04:39:09;4.77;;;3.17;;
71566;SDS011;59403;47.456;19.120;2023-07-13T04:41:36;9.35;;;3.62;;
71566;SDS011;59403;47.456;19.120;2023-07-13T04:44:05;7.28;;;3.97;;
71566;SDS011;59403;47.456;19.120;2023-07-13T04:46:32;10.68;;;4.05;;
71566;SDS011;59403;47.456;19.120;2023-07-13T04:48:59;9.63;;;3.95;;
71566;SDS011;59403;47.456;19.120;2023-07-13T04:51:41;5.23;;;3.60;;
71566;SDS011;59403;47.456;19.120;2023-07-13T04:54:07;5.28;;;3.30;;
71566;SDS011;59403;47.456;19.120;2023-07-13T04:56:34;5.75;;;4.10;;
71566;SDS011;59403;47.456;19.120;2023-07-13T04:59:01;5.53;;;3.90;;
71566;SDS011;59403;47.456;19.120;2023-07-13T05:01:28;6.28;;;3.85;;
71566;SDS011;59403;47.456;19.120;2023-07-13T05:03:56;6.90;;;3.70;;
71566;SDS011;59403;47.456;19.120;2023-07-13T05:06:24;8.23;;;4.00;;
71566;SDS011;59403;47.456;19.120;2023-07-13T05:08:52;18.77;;;4.82;;
71566;SDS011;59403;47.456;19.120;2023-07-13T05:11:19;23.73;;;4.95;;
71566;SDS011;59403;47.456;19.120;2023-07-13T05:13:46;7.15;;;3.70;;
71566;SDS011;59403;47.456;19.120;2023-07-13T05:16:12;10.63;;;3.33;;
71566;SDS011;59403;47.456;19.120;2023-07-13T05:18:39;7.12;;;3.45;;
71566;SDS011;59403;47.456;19.120;2023-07-13T05:21:07;6.93;;;3.50;;
71566;SDS011;59403;47.456;19.120;2023-07-13T05:30:46;9.23;;;3.00;;
71566;SDS011;59403;47.456;19.120;2023-07-13T05:33:13;7.15;;;3.37;;
71566;SDS011;59403;47.456;19.120;2023-07-13T05:35:45;8.38;;;3.67;;
71566;SDS011;59403;47.456;19.120;2023-07-13T05:38:12;7.15;;;3.28;;
71566;SDS011;59403;47.456;19.120;2023-07-13T05:40:39;9.60;;;3.05;;
71566;SDS011;59403;47.456;19.120;2023-07-13T05:43:08;7.30;;;3.13;;
71566;SDS011;59403;47.456;19.120;2023-07-13T05:45:35;5.50;;;2.47;;
71566;SDS011;59403;47.456;19.120;2023-07-13T05:48:03;4.78;;;3.03;;
71566;SDS011;59403;47.456;19.120;2023-07-13T05:50:30;4.62;;;2.83;;
71566;SDS011;59403;47.456;19.120;2023-07-13T05:52:58;5.37;;;2.70;;
71566;SDS011;59403;47.456;19.120;2023-07-13T05:55:24;5.23;;;2.63;;
71566;SDS011;59403;47.456;19.120;2023-07-13T05:57:51;3.83;;;2.50;;
71566;SDS011;59403;47.456;19.120;2023-07-13T06:00:19;3.15;;;1.77;;
71566;SDS011;59403;47.456;19.120;2023-07-13T06:02:51;5.30;;;2.30;;
71566;SDS011;59403;47.456;19.120;2023-07-13T06:05:19;4.65;;;2.08;;
71566;SDS011;59403;47.456;19.120;2023-07-13T06:07:46;4.07;;;2.27;;
71566;SDS011;59403;47.456;19.120;2023-07-13T06:10:13;4.07;;;1.98;;
71566;SDS011;59403;47.456;19.120;2023-07-13T06:12:42;7.43;;;2.40;;
71566;SDS011;59403;47.456;19.120;2023-07-13T06:15:11;2.25;;;1.52;;
71566;SDS011;59403;47.456;19.120;2023-07-13T06:17:38;3.97;;;2.03;;
71566;SDS011;59403;47.456;19.120;2023-07-13T06:20:09;4.13;;;1.97;;
71566;SDS011;59403;47.456;19.120;2023-07-13T06:22:40;2.90;;;1.70;;
71566;SDS011;59403;47.456;19.120;2023-07-13T06:25:10;7.53;;;2.45;;
71566;SDS011;59403;47.456;19.120;2023-07-13T06:27:37;5.35;;;1.95;;
71566;SDS011;59403;47.456;19.120;2023-07-13T06:30:04;5.07;;;2.60;;
71566;SDS011;59403;47.456;19.120;2023-07-13T06:32:32;4.43;;;2.27;;
71566;SDS011;59403;47.456;19.120;2023-07-13T06:35:03;4.30;;;2.25;;
71566;SDS011;59403;47.456;19.120;2023-07-13T06:37:30;3.67;;;2.33;;
71566;SDS011;59403;47.456;19.120;2023-07-13T06:39:59;2.83;;;2.37;;
71566;SDS011;59403;47.456;19.120;2023-07-13T06:42:26;8.23;;;2.70;;
71566;SDS011;59403;47.456;19.120;2023-07-13T06:44:56;2.93;;;2.00;;
71566;SDS011;59403;47.456;19.120;2023-07-13T06:47:23;2.93;;;1.93;;
71566;SDS011;59403;47.456;19.120;2023-07-13T06:49:50;3.03;;;2.08;;
71566;SDS011;59403;47.456;19.120;2023-07-13T06:52:17;3.35;;;1.70;;
71566;SDS011;59403;47.456;19.120;2023-07-13T06:54:44;6.03;;;2.05;;
71566;SDS011;59403;47.456;19.120;2023-07-13T06:57:16;4.63;;;2.10;;
71566;SDS011;59403;47.456;19.120;2023-07-13T06:59:53;5.03;;;1.70;;
71566;SDS011;59403;47.456;19.120;2023-07-13T07:02:20;4.05;;;1.95;;
71566;SDS011;59403;47.456;19.120;2023-07-13T07:04:48;6.47;;;1.98;;
71566;SDS011;59403;47.456;19.120;2023-07-13T07:07:19;2.20;;;1.80;;
71566;SDS011;59403;47.456;19.120;2023-07-13T07:09:46;3.07;;;1.90;;
71566;SDS011;59403;47.456;19.120;2023-07-13T07:12:13;3.55;;;1.70;;
71566;SDS011;59403;47.456;19.120;2023-07-13T07:14:41;4.90;;;2.33;;
71566;SDS011;59403;47.456;19.120;2023-07-13T07:17:08;3.78;;;1.90;;
71566;SDS011;59403;47.456;19.120;2023-07-13T07:19:35;4.72;;;2.35;;
71566;SDS011;59403;47.456;19.120;2023-07-13T07:22:04;2.87;;;1.83;;
71566;SDS011;59403;47.456;19.120;2023-07-13T07:24:31;3.55;;;2.15;;
71566;SDS011;59403;47.456;19.120;2023-07-13T07:26:57;3.83;;;2.35;;
71566;SDS011;59403;47.456;19.120;2023-07-13T07:29:25;3.65;;;1.87;;
71566;SDS011;59403;47.456;19.120;2023-07-13T07:31:57;3.28;;;1.80;;
71566;SDS011;59403;47.456;19.120;2023-07-13T07:34:25;3.43;;;1.83;;
71566;SDS011;59403;47.456;19.120;2023-07-13T07:36:52;5.05;;;1.85;;
71566;SDS011;59403;47.456;19.120;2023-07-13T07:39:20;4.97;;;2.30;;
71566;SDS011;59403;47.456;19.120;2023-07-13T07:41:49;4.82;;;2.28;;
71566;SDS011;59403;47.456;19.120;2023-07-13T07:44:19;3.50;;;2.17;;
71566;SDS011;59403;47.456;19.120;2023-07-13T07:46:49;4.67;;;2.60;;
71566;SDS011;59403;47.456;19.120;2023-07-13T07:49:17;5.75;;;2.33;;
71566;SDS011;59403;47.456;19.120;2023-07-13T07:51:47;3.75;;;2.47;;
71566;SDS011;59403;47.456;19.120;2023-07-13T07:54:16;3.78;;;2.30;;
71566;SDS011;59403;47.456;19.120;2023-07-13T07:56:43;3.90;;;2.75;;
71566;SDS011;59403;47.456;19.120;2023-07-13T07:59:10;3.47;;;2.00;;
71566;SDS011;59403;47.456;19.120;2023-07-13T08:01:37;2.85;;;2.20;;
71566;SDS011;59403;47.456;19.120;2023-07-13T08:04:04;3.62;;;2.28;;
71566;SDS011;59403;47.456;19.120;2023-07-13T08:06:32;4.03;;;2.00;;
71566;SDS011;59403;47.456;19.120;2023-07-13T08:08:59;3.97;;;2.28;;
71566;SDS011;59403;47.456;19.120;2023-07-13T08:11:26;3.87;;;2.03;;
71566;SDS011;59403;47.456;19.120;2023-07-13T08:13:53;3.62;;;2.42;;
71566;SDS011;59403;47.456;19.120;2023-07-13T08:16:20;6.12;;;2.62;;
71566;SDS011;59403;47.456;19.120;2023-07-13T08:18:48;5.95;;;2.55;;
71566;SDS011;59403;47.456;19.120;2023-07-13T08:21:15;6.07;;;2.50;;
71566;SDS011;59403;47.456;19.120;2023-07-13T08:23:46;4.53;;;2.63;;
71566;SDS011;59403;47.456;19.120;2023-07-13T08:26:13;4.25;;;2.40;;
71566;SDS011;59403;47.456;19.120;2023-07-13T08:28:40;4.75;;;2.55;;
71566;SDS011;59403;47.456;19.120;2023-07-13T08:31:08;4.78;;;2.30;;
71566;SDS011;59403;47.456;19.120;2023-07-13T08:33:36;6.57;;;2.50;;
71566;SDS011;59403;47.456;19.120;2023-07-13T08:36:03;2.40;;;2.03;;
71566;SDS011;59403;47.456;19.120;2023-07-13T08:38:31;4.22;;;2.25;;
71566;SDS011;59403;47.456;19.120;2023-07-13T08:41:00;5.05;;;2.75;;
71566;SDS011;59403;47.456;19.120;2023-07-13T08:43:37;4.78;;;2.35;;
71566;SDS011;59403;47.456;19.120;2023-07-13T08:46:05;3.80;;;2.58;;
71566;SDS011;59403;47.456;19.120;2023-07-13T08:48:38;3.63;;;2.43;;
71566;SDS011;59403;47.456;19.120;2023-07-13T08:51:12;4.62;;;2.45;;
71566;SDS011;59403;47.456;19.120;2023-07-13T08:53:52;6.53;;;2.85;;
71566;SDS011;59403;47.456;19.120;2023-07-13T08:56:25;4.32;;;2.40;;
71566;SDS011;59403;47.456;19.120;2023-07-13T08:58:55;3.53;;;2.40;;
71566;SDS011;59403;47.456;19.120;2023-07-13T09:01:24;5.13;;;2.90;;
71566;SDS011;59403;47.456;19.120;2023-07-13T09:03:59;4.22;;;2.65;;
71566;SDS011;59403;47.456;19.120;2023-07-13T09:06:34;5.43;;;3.20;;
71566;SDS011;59403;47.456;19.120;2023-07-13T09:09:12;3.78;;;2.70;;
71566;SDS011;59403;47.456;19.120;2023-07-13T09:11:52;5.50;;;3.22;;
71566;SDS011;59403;47.456;19.120;2023-07-13T09:14:31;4.43;;;2.70;;
71566;SDS011;59403;47.456;19.120;2023-07-13T09:17:02;3.80;;;2.53;;
71566;SDS011;59403;47.456;19.120;2023-07-13T09:19:32;3.72;;;2.78;;
71566;SDS011;59403;47.456;19.120;2023-07-13T09:22:02;4.70;;;3.28;;
71566;SDS011;59403;47.456;19.120;2023-07-13T09:24:35;4.70;;;2.67;;
71566;SDS011;59403;47.456;19.120;2023-07-13T09:27:10;4.90;;;2.60;;
71566;SDS011;59403;47.456;19.120;2023-07-13T09:29:44;3.87;;;2.60;;
71566;SDS011;59403;47.456;19.120;2023-07-13T09:32:16;4.78;;;3.28;;
71566;SDS011;59403;47.456;19.120;2023-07-13T09:34:51;4.82;;;2.72;;
71566;SDS011;59403;47.456;19.120;2023-07-13T09:37:19;2.92;;;2.60;;
71566;SDS011;59403;47.456;19.120;2023-07-13T09:39:50;4.80;;;3.40;;
71566;SDS011;59403;47.456;19.120;2023-07-13T09:42:20;3.75;;;2.42;;
71566;SDS011;59403;47.456;19.120;2023-07-13T09:44:52;4.18;;;3.30;;
71566;SDS011;59403;47.456;19.120;2023-07-13T09:47:21;5.35;;;2.72;;
71566;SDS011;59403;47.456;19.120;2023-07-13T09:49:55;3.28;;;2.90;;
71566;SDS011;59403;47.456;19.120;2023-07-13T09:52:23;4.33;;;2.80;;
71566;SDS011;59403;47.456;19.120;2023-07-13T09:54:51;4.32;;;3.10;;
71566;SDS011;59403;47.456;19.120;2023-07-13T09:57:26;5.47;;;3.50;;
71566;SDS011;59403;47.456;19.120;2023-07-13T09:59:56;4.70;;;2.85;;
71566;SDS011;59403;47.456;19.120;2023-07-13T10:02:25;3.78;;;3.20;;
71566;SDS011;59403;47.456;19.120;2023-07-13T10:04:57;5.03;;;3.63;;
71566;SDS011;59403;47.456;19.120;2023-07-13T10:07:26;4.25;;;3.40;;
71566;SDS011;59403;47.456;19.120;2023-07-13T10:09:57;5.10;;;3.62;;
71566;SDS011;59403;47.456;19.120;2023-07-13T10:12:30;5.12;;;3.20;;
71566;SDS011;59403;47.456;19.120;2023-07-13T10:15:03;8.48;;;4.10;;
71566;SDS011;59403;47.456;19.120;2023-07-13T10:17:40;3.93;;;3.30;;
71566;SDS011;59403;47.456;19.120;2023-07-13T10:20:09;4.80;;;3.47;;
71566;SDS011;59403;47.456;19.120;2023-07-13T10:22:39;5.82;;;4.05;;
71566;SDS011;59403;47.456;19.120;2023-07-13T10:25:13;5.03;;;3.37;;
71566;SDS011;59403;47.456;19.120;2023-07-13T10:27:45;6.80;;;3.55;;
71566;SDS011;59403;47.456;19.120;2023-07-13T10:30:14;3.73;;;3.27;;
71566;SDS011;59403;47.456;19.120;2023-07-13T10:32:43;5.87;;;2.72;;
71566;SDS011;59403;47.456;19.120;2023-07-13T10:35:11;4.65;;;3.53;;
71566;SDS011;59403;47.456;19.120;2023-07-13T10:37:43;4.85;;;3.40;;
71566;SDS011;59403;47.456;19.120;2023-07-13T10:40:16;3.95;;;3.30;;
71566;SDS011;59403;47.456;19.120;2023-07-13T10:42:51;7.50;;;2.90;;
71566;SDS011;59403;47.456;19.120;2023-07-13T10:45:21;5.07;;;2.85;;
71566;SDS011;59403;47.456;19.120;2023-07-13T10:47:51;5.37;;;3.25;;
71566;SDS011;59403;47.456;19.120;2023-07-13T10:50:22;4.18;;;2.70;;
71566;SDS011;59403;47.456;19.120;2023-07-13T10:52:51;6.18;;;2.87;;
71566;SDS011;59403;47.456;19.120;2023-07-13T10:55:33;4.63;;;2.83;;
71566;SDS011;59403;47.456;19.120;2023-07-13T10:58:10;4.72;;;2.75;;
71566;SDS011;59403;47.456;19.120;2023-07-13T11:00:49;4.50;;;3.17;;
71566;SDS011;59403;47.456;19.120;2023-07-13T11:03:20;3.80;;;2.95;;
71566;SDS011;59403;47.456;19.120;2023-07-13T11:05:49;3.08;;;2.78;;
71566;SDS011;59403;47.456;19.120;2023-07-13T11:08:24;3.93;;;3.10;;
71566;SDS011;59403;47.456;19.120;2023-07-13T11:11:03;3.00;;;2.22;;
71566;SDS011;59403;47.456;19.120;2023-07-13T11:14:02;4.12;;;3.25;;
71566;SDS011;59403;47.456;19.120;2023-07-13T11:16:34;6.40;;;2.80;;
71566;SDS011;59403;47.456;19.120;2023-07-13T11:28:06;5.78;;;3.08;;
71566;SDS011;59403;47.456;19.120;2023-07-13T11:30:45;2.90;;;2.50;;
71566;SDS011;59403;47.456;19.120;2023-07-13T11:33:16;9.18;;;2.85;;
71566;SDS011;59403;47.456;19.120;2023-07-13T11:35:57;3.33;;;2.30;;
71566;SDS011;59403;47.456;19.120;2023-07-13T11:38:28;4.07;;;2.08;;
71566;SDS011;59403;47.456;19.120;2023-07-13T11:41:00;4.55;;;2.72;;
71566;SDS011;59403;47.456;19.120;2023-07-13T11:43:30;5.07;;;1.90;;
71566;SDS011;59403;47.456;19.120;2023-07-13T11:46:00;5.30;;;2.67;;
71566;SDS011;59403;47.456;19.120;2023-07-13T11:48:38;3.03;;;2.20;;
71566;SDS011;59403;47.456;19.120;2023-07-13T11:51:09;3.62;;;2.42;;
71566;SDS011;59403;47.456;19.120;2023-07-13T11:53:48;2.53;;;1.90;;
71566;SDS011;59403;47.456;19.120;2023-07-13T11:56:16;2.90;;;1.87;;
71566;SDS011;59403;47.456;19.120;2023-07-13T11:58:44;2.72;;;2.05;;
71566;SDS011;59403;47.456;19.120;2023-07-13T12:01:17;2.57;;;2.13;;
71566;SDS011;59403;47.456;19.120;2023-07-13T12:03:47;2.35;;;1.77;;
71566;SDS011;59403;47.456;19.120;2023-07-13T12:06:26;2.75;;;1.98;;
71566;SDS011;59403;47.456;19.120;2023-07-13T12:08:58;5.37;;;2.30;;
71566;SDS011;59403;47.456;19.120;2023-07-13T12:11:26;2.95;;;2.22;;
71566;SDS011;59403;47.456;19.120;2023-07-13T12:13:53;3.67;;;2.40;;
71566;SDS011;59403;47.456;19.120;2023-07-13T12:16:24;3.20;;;2.53;;
71566;SDS011;59403;47.456;19.120;2023-07-13T12:18:54;5.60;;;2.85;;
71566;SDS011;59403;47.456;19.120;2023-07-13T12:21:25;5.55;;;2.37;;
71566;SDS011;59403;47.456;19.120;2023-07-13T12:23:58;4.53;;;2.90;;
71566;SDS011;59403;47.456;19.120;2023-07-13T12:26:27;3.60;;;2.30;;
71566;SDS011;59403;47.456;19.120;2023-07-13T12:28:58;3.33;;;2.40;;
71566;SDS011;59403;47.456;19.120;2023-07-13T12:31:31;3.70;;;2.35;;
71566;SDS011;59403;47.456;19.120;2023-07-13T12:34:02;3.92;;;2.72;;
71566;SDS011;59403;47.456;19.120;2023-07-13T12:36:33;5.40;;;2.70;;
71566;SDS011;59403;47.456;19.120;2023-07-13T12:39:05;2.80;;;2.27;;
71566;SDS011;59403;47.456;19.120;2023-07-13T12:41:42;4.03;;;2.47;;
71566;SDS011;59403;47.456;19.120;2023-07-13T12:44:11;3.42;;;2.60;;
71566;SDS011;59403;47.456;19.120;2023-07-13T12:46:56;4.95;;;2.70;;
71566;SDS011;59403;47.456;19.120;2023-07-13T12:49:26;3.85;;;2.80;;
71566;SDS011;59403;47.456;19.120;2023-07-13T12:54:42;3.20;;;2.70;;
71566;SDS011;59403;47.456;19.120;2023-07-13T12:57:18;6.80;;;2.70;;
71566;SDS011;59403;47.456;19.120;2023-07-13T12:59:45;4.72;;;2.67;;
71566;SDS011;59403;47.456;19.120;2023-07-13T13:02:23;3.85;;;2.72;;
71566;SDS011;59403;47.456;19.120;2023-07-13T13:04:56;4.90;;;2.87;;
71566;SDS011;59403;47.456;19.120;2023-07-13T13:07:23;4.80;;;2.70;;
71566;SDS011;59403;47.456;19.120;2023-07-13T13:09:51;5.47;;;3.28;;
71566;SDS011;59403;47.456;19.120;2023-07-13T13:12:19;3.35;;;3.05;;
71566;SDS011;59403;47.456;19.120;2023-07-13T13:14:46;6.85;;;3.53;;
71566;SDS011;59403;47.456;19.120;2023-07-13T13:17:16;7.30;;;2.63;;
71566;SDS011;59403;47.456;19.120;2023-07-13T13:19:48;4.10;;;2.80;;
71566;SDS011;59403;47.456;19.120;2023-07-13T13:22:15;7.90;;;3.28;;
71566;SDS011;59403;47.456;19.120;2023-07-13T13:24:44;4.40;;;3.00;;
71566;SDS011;59403;47.456;19.120;2023-07-13T13:27:14;4.70;;;2.72;;
71566;SDS011;59403;47.456;19.120;2023-07-13T13:29:43;4.10;;;2.70;;
71566;SDS011;59403;47.456;19.120;2023-07-13T13:32:11;4.40;;;2.10;;
71566;SDS011;59403;47.456;19.120;2023-07-13T13:37:40;6.55;;;2.83;;
71566;SDS011;59403;47.456;19.120;2023-07-13T13:40:14;5.30;;;2.70;;
71566;SDS011;59403;47.456;19.120;2023-07-13T13:42:43;6.43;;;2.43;;
71566;SDS011;59403;47.456;19.120;2023-07-13T13:45:13;3.45;;;2.20;;
71566;SDS011;59403;47.456;19.120;2023-07-13T13:47:42;3.55;;;3.22;;
71566;SDS011;59403;47.456;19.120;2023-07-13T13:50:13;3.92;;;2.35;;
71566;SDS011;59403;47.456;19.120;2023-07-13T13:52:45;3.28;;;2.67;;
71566;SDS011;59403;47.456;19.120;2023-07-13T13:55:12;4.67;;;2.20;;
71566;SDS011;59403;47.456;19.120;2023-07-13T13:57:40;7.95;;;3.58;;
71566;SDS011;59403;47.456;19.120;2023-07-13T14:00:08;3.28;;;2.60;;
71566;SDS011;59403;47.456;19.120;2023-07-13T14:02:39;4.15;;;2.53;;
71566;SDS011;59403;47.456;19.120;2023-07-13T14:05:09;3.47;;;2.30;;
71566;SDS011;59403;47.456;19.120;2023-07-13T14:07:40;2.83;;;2.40;;
71566;SDS011;59403;47.456;19.120;2023-07-13T14:10:10;3.55;;;2.37;;
71566;SDS011;59403;47.456;19.120;2023-07-13T14:12:40;3.53;;;3.05;;
71566;SDS011;59403;47.456;19.120;2023-07-13T14:15:08;3.83;;;2.80;;
71566;SDS011;59403;47.456;19.120;2023-07-13T14:17:43;4.05;;;2.87;;
71566;SDS011;59403;47.456;19.120;2023-07-13T14:20:11;4.30;;;2.67;;
71566;SDS011;59403;47.456;19.120;2023-07-13T14:22:40;8.90;;;3.08;;
71566;SDS011;59403;47.456;19.120;2023-07-13T14:25:10;6.68;;;2.87;;
71566;SDS011;59403;47.456;19.120;2023-07-13T14:27:37;4.22;;;3.10;;
71566;SDS011;59403;47.456;19.120;2023-07-13T14:30:07;6.00;;;3.30;;
71566;SDS011;59403;47.456;19.120;2023-07-13T14:32:39;5.30;;;2.43;;
71566;SDS011;59403;47.456;19.120;2023-07-13T14:35:06;31.95;;;4.10;;
71566;SDS011;59403;47.456;19.120;2023-07-13T14:37:34;13.40;;;3.10;;
71566;SDS011;59403;47.456;19.120;2023-07-13T14:40:04;7.30;;;2.70;;
71566;SDS011;59403;47.456;19.120;2023-07-13T14:42:38;4.75;;;3.12;;
71566;SDS011;59403;47.456;19.120;2023-07-13T14:45:05;3.37;;;2.80;;
71566;SDS011;59403;47.456;19.120;2023-07-13T14:47:38;4.87;;;2.97;;
71566;SDS011;59403;47.456;19.120;2023-07-13T14:50:07;4.68;;;3.40;;
71566;SDS011;59403;47.456;19.120;2023-07-13T14:52:42;4.85;;;2.95;;
71566;SDS011;59403;47.456;19.120;2023-07-13T14:55:12;8.80;;;3.62;;
71566;SDS011;59403;47.456;19.120;2023-07-13T14:57:40;18.60;;;4.00;;
71566;SDS011;59403;47.456;19.120;2023-07-13T15:00:12;6.82;;;3.03;;
71566;SDS011;59403;47.456;19.120;2023-07-13T15:02:42;4.22;;;2.90;;
71566;SDS011;59403;47.456;19.120;2023-07-13T15:05:15;7.25;;;2.45;;
71566;SDS011;59403;47.456;19.120;2023-07-13T15:07:44;5.62;;;3.00;;
71566;SDS011;59403;47.456;19.120;2023-07-13T15:10:14;3.47;;;2.73;;
71566;SDS011;59403;47.456;19.120;2023-07-13T15:12:41;7.05;;;2.70;;
71566;SDS011;59403;47.456;19.120;2023-07-13T15:15:08;5.07;;;3.17;;
71566;SDS011;59403;47.456;19.120;2023-07-13T15:17:36;4.53;;;2.67;;
71566;SDS011;59403;47.456;19.120;2023-07-13T15:20:05;2.97;;;2.50;;
71566;SDS011;59403;47.456;19.120;2023-07-13T15:22:42;3.43;;;2.70;;